sensor_id;sensor_type;location;lat;lon;timestamp;pressure;altitude;pressure_sealevel;temperature;humidity
9839;BME280;4958;48.150;11.506;2023-03-26T00:01:59;95161.41;;;10.37;58.95
9839;BME280;4958;48.150;11.506;2023-03-26T00:04:29;95167.03;;;10.48;59.05
9839;BME280;4958;48.150;11.506;2023-03-26T00:06:57;95163.72;;;10.54;58.69
9839;BME280;4958;48.150;11.506;2023-03-26T00:09:25;95159.38;;;10.54;58.69
9839;BME280;4958;48.150;11.506;2023-03-26T00:11:54;95156.78;;;10.54;58.81
9839;BME280;4958;48.150;11.506;2023-03-26T00:14:20;95164.03;;;10.44;58.91
9839;BME280;4958;48.150;11.506;2023-03-26T00:16:47;95159.66;;;10.38;59.31
9839;BME280;4958;48.150;11.506;2023-03-26T00:19:14;95159.16;;;10.28;59.18
9839;BME280;4958;48.150;11.506;2023-03-26T00:21:41;95156.75;;;10.26;59.60
9839;BME280;4958;48.150;11.506;2023-03-26T00:24:09;95161.09;;;10.26;59.61
9839;BME280;4958;48.150;11.506;2023-03-26T00:26:40;95155.59;;;10.29;59.04
9839;BME280;4958;48.150;11.506;2023-03-26T00:29:07;95154.25;;;10.33;59.23
9839;BME280;4958;48.150;11.506;2023-03-26T00:31:34;95157.25;;;10.36;59.35
9839;BME280;4958;48.150;11.506;2023-03-26T00:34:02;95150.16;;;10.38;59.24
9839;BME280;4958;48.150;11.506;2023-03-26T00:36:30;95154.78;;;10.28;59.58
9839;BME280;4958;48.150;11.506;2023-03-26T00:38:59;95155.13;;;10.19;59.45
9839;BME280;4958;48.150;11.506;2023-03-26T00:41:29;95153.34;;;10.19;59.47
9839;BME280;4958;48.150;11.506;2023-03-26T00:43:58;95141.50;;;10.25;59.59
9839;BME280;4958;48.150;11.506;2023-03-26T00:46:27;95143.72;;;10.28;59.36
9839;BME280;4958;48.150;11.506;2023-03-26T00:48:54;95140.94;;;10.29;59.37
9839;BME280;4958;48.150;11.506;2023-03-26T00:51:23;95147.06;;;10.28;59.57
9839;BME280;4958;48.150;11.506;2023-03-26T00:53:50;95136.72;;;10.22;59.54
9839;BME280;4958;48.150;11.506;2023-03-26T00:56:17;95128.41;;;10.20;59.49
9839;BME280;4958;48.150;11.506;2023-03-26T00:58:44;95134.06;;;10.15;59.75
9839;BME280;4958;48.150;11.506;2023-03-26T01:01:15;95137.38;;;10.09;60.12
9839;BME280;4958;48.150;11.506;2023-03-26T01:03:44;95140.38;;;10.13;60.06
9839;BME280;4958;48.150;11.506;2023-03-26T01:06:13;95146.31;;;10.13;60.13
9839;BME280;4958;48.150;11.506;2023-03-26T01:08:46;95143.56;;;10.15;59.89
9839;BME280;4958;48.150;11.506;2023-03-26T01:11:14;95144.00;;;10.18;59.51
9839;BME280;4958;48.150;11.506;2023-03-26T01:13:45;95143.13;;;10.11;60.35
9839;BME280;4958;48.150;11.506;2023-03-26T01:16:26;95146.31;;;10.13;60.24
9839;BME280;4958;48.150;11.506;2023-03-26T01:18:54;95154.47;;;10.17;60.11
9839;BME280;4958;48.150;11.506;2023-03-26T01:21:24;95142.84;;;10.21;59.96
9839;BME280;4958;48.150;11.506;2023-03-26T01:23:58;95144.56;;;10.14;60.21
9839;BME280;4958;48.150;11.506;2023-03-26T01:26:42;95138.84;;;10.18;60.06
9839;BME280;4958;48.150;11.506;2023-03-26T01:29:18;95138.00;;;10.11;60.33
9839;BME280;4958;48.150;11.506;2023-03-26T01:31:52;95133.81;;;10.10;60.58
9839;BME280;4958;48.150;11.506;2023-03-26T01:34:25;95134.00;;;10.09;60.44
9839;BME280;4958;48.150;11.506;2023-03-26T01:37:04;95121.75;;;10.11;60.70
9839;BME280;4958;48.150;11.506;2023-03-26T01:39:35;95137.00;;;10.12;60.07
9839;BME280;4958;48.150;11.506;2023-03-26T01:42:10;95129.72;;;10.16;60.63
9839;BME280;4958;48.150;11.506;2023-03-26T01:44:46;95121.88;;;10.02;60.89
9839;BME280;4958;48.150;11.506;2023-03-26T01:47:15;95121.47;;;9.99;60.76
9839;BME280;4958;48.150;11.506;2023-03-26T01:49:42;95119.31;;;10.02;60.57
9839;BME280;4958;48.150;11.506;2023-03-26T01:52:12;95111.22;;;10.05;61.14
9839;BME280;4958;48.150;11.506;2023-03-26T01:54:41;95121.88;;;10.02;60.99
9839;BME280;4958;48.150;11.506;2023-03-26T01:57:16;95121.47;;;9.99;60.98
9839;BME280;4958;48.150;11.506;2023-03-26T02:00:02;95114.34;;;10.01;61.81
9839;BME280;4958;48.150;11.506;2023-03-26T02:02:43;95104.31;;;10.06;61.31
9839;BME280;4958;48.150;11.506;2023-03-26T02:05:16;95095.78;;;10.05;60.89
9839;BME280;4958;48.150;11.506;2023-03-26T02:07:48;95099.34;;;10.04;61.00
9839;BME280;4958;48.150;11.506;2023-03-26T02:10:23;95089.41;;;10.01;60.89
9839;BME280;4958;48.150;11.506;2023-03-26T02:12:51;95087.78;;;9.94;61.41
9839;BME280;4958;48.150;11.506;2023-03-26T02:15:18;95090.44;;;10.00;61.15
9839;BME280;4958;48.150;11.506;2023-03-26T02:17:44;95087.06;;;10.00;61.07
9839;BME280;4958;48.150;11.506;2023-03-26T02:20:12;95084.88;;;10.03;60.96
9839;BME280;4958;48.150;11.506;2023-03-26T02:22:40;95082.50;;;10.02;61.16
9839;BME280;4958;48.150;11.506;2023-03-26T02:25:12;95080.19;;;10.07;60.98
9839;BME280;4958;48.150;11.506;2023-03-26T02:27:40;95076.63;;;10.08;61.11
9839;BME280;4958;48.150;11.506;2023-03-26T02:30:09;95080.44;;;10.12;61.08
9839;BME280;4958;48.150;11.506;2023-03-26T02:32:36;95075.66;;;10.09;60.75
9839;BME280;4958;48.150;11.506;2023-03-26T02:35:03;95070.06;;;10.05;60.95
9839;BME280;4958;48.150;11.506;2023-03-26T02:37:31;95077.78;;;10.05;60.86
9839;BME280;4958;48.150;11.506;2023-03-26T02:39:58;95064.28;;;9.97;61.34
9839;BME280;4958;48.150;11.506;2023-03-26T02:42:24;95071.38;;;9.95;61.44
9839;BME280;4958;48.150;11.506;2023-03-26T02:44:52;95067.22;;;9.94;61.71
9839;BME280;4958;48.150;11.506;2023-03-26T02:47:18;95059.50;;;9.94;61.52
9839;BME280;4958;48.150;11.506;2023-03-26T02:49:45;95054.19;;;9.95;61.77
9839;BME280;4958;48.150;11.506;2023-03-26T02:52:11;95055.34;;;9.93;61.55
9839;BME280;4958;48.150;11.506;2023-03-26T02:54:41;95057.13;;;9.92;61.84
9839;BME280;4958;48.150;11.506;2023-03-26T02:57:07;95053.38;;;9.95;61.86
9839;BME280;4958;48.150;11.506;2023-03-26T02:59:34;95051.06;;;10.00;61.74
9839;BME280;4958;48.150;11.506;2023-03-26T03:02:02;95039.38;;;10.04;61.60
9839;BME280;4958;48.150;11.506;2023-03-26T03:04:28;95038.19;;;10.00;62.02
9839;BME280;4958;48.150;11.506;2023-03-26T03:06:54;95039.00;;;10.00;61.84
9839;BME280;4958;48.150;11.506;2023-03-26T03:09:21;95031.06;;;10.02;61.89
9839;BME280;4958;48.150;11.506;2023-03-26T03:11:49;95027.50;;;10.03;61.65
9839;BME280;4958;48.150;11.506;2023-03-26T03:14:16;95014.91;;;10.08;61.63
9839;BME280;4958;48.150;11.506;2023-03-26T03:16:42;95007.97;;;10.09;61.99
9839;BME280;4958;48.150;11.506;2023-03-26T03:19:10;95003.03;;;10.07;61.86
9839;BME280;4958;48.150;11.506;2023-03-26T03:21:37;95004.84;;;10.13;61.32
9839;BME280;4958;48.150;11.506;2023-03-26T03:24:04;94999.34;;;10.16;61.39
9839;BME280;4958;48.150;11.506;2023-03-26T03:26:31;94996.56;;;10.18;61.28
9839;BME280;4958;48.150;11.506;2023-03-26T03:28:58;94999.56;;;10.21;61.17
9839;BME280;4958;48.150;11.506;2023-03-26T03:31:25;94994.25;;;10.23;61.46
9839;BME280;4958;48.150;11.506;2023-03-26T03:33:52;94991.66;;;10.23;61.31
9839;BME280;4958;48.150;11.506;2023-03-26T03:36:21;94998.03;;;10.27;61.13
9839;BME280;4958;48.150;11.506;2023-03-26T03:38:48;94996.63;;;10.24;61.27
9839;BME280;4958;48.150;11.506;2023-03-26T03:41:15;94992.88;;;10.27;61.04
9839;BME280;4958;48.150;11.506;2023-03-26T03:43:42;94982.41;;;10.28;61.14
9839;BME280;4958;48.150;11.506;2023-03-26T03:46:09;94986.94;;;10.26;60.85
9839;BME280;4958;48.150;11.506;2023-03-26T03:48:35;94985.97;;;10.27;61.09
9839;BME280;4958;48.150;11.506;2023-03-26T03:51:04;94987.19;;;10.31;61.13
9839;BME280;4958;48.150;11.506;2023-03-26T03:53:32;94994.72;;;10.33;61.26
9839;BME280;4958;48.150;11.506;2023-03-26T03:56:01;94983.63;;;10.32;61.08
9839;BME280;4958;48.150;11.506;2023-03-26T03:58:28;94986.38;;;10.31;61.22
9839;BME280;4958;48.150;11.506;2023-03-26T04:00:55;94987.56;;;10.28;61.44
9839;BME280;4958;48.150;11.506;2023-03-26T04:03:26;94977.88;;;10.30;61.34
9839;BME280;4958;48.150;11.506;2023-03-26T04:05:53;94983.25;;;10.35;61.64
9839;BME280;4958;48.150;11.506;2023-03-26T04:08:20;94978.09;;;10.35;61.55
9839;BME280;4958;48.150;11.506;2023-03-26T04:10:49;94965.06;;;10.37;61.15
9839;BME280;4958;48.150;11.506;2023-03-26T04:13:16;94959.31;;;10.35;61.56
9839;BME280;4958;48.150;11.506;2023-03-26T04:15:43;94958.88;;;10.31;61.78
9839;BME280;4958;48.150;11.506;2023-03-26T04:18:09;94957.72;;;10.34;61.42
9839;BME280;4958;48.150;11.506;2023-03-26T04:20:36;94957.53;;;10.35;61.25
9839;BME280;4958;48.150;11.506;2023-03-26T04:23:05;94952.56;;;10.34;61.42
9839;BME280;4958;48.150;11.506;2023-03-26T04:25:32;94949.56;;;10.30;61.30
9839;BME280;4958;48.150;11.506;2023-03-26T04:28:04;94950.13;;;10.26;61.59
9839;BME280;4958;48.150;11.506;2023-03-26T04:30:33;94946.53;;;10.20;61.77
9839;BME280;4958;48.150;11.506;2023-03-26T04:33:00;94942.56;;;10.18;62.21
9839;BME280;4958;48.150;11.506;2023-03-26T04:35:31;94947.47;;;10.13;62.01
9839;BME280;4958;48.150;11.506;2023-03-26T04:37:59;94943.53;;;10.17;61.96
9839;BME280;4958;48.150;11.506;2023-03-26T04:40:26;94937.19;;;10.13;62.04
9839;BME280;4958;48.150;11.506;2023-03-26T04:42:54;94935.78;;;10.10;62.18
9839;BME280;4958;48.150;11.506;2023-03-26T04:45:24;94932.16;;;10.04;62.69
9839;BME280;4958;48.150;11.506;2023-03-26T04:47:50;94925.06;;;10.07;62.52
9839;BME280;4958;48.150;11.506;2023-03-26T04:50:17;94925.63;;;10.02;62.53
9839;BME280;4958;48.150;11.506;2023-03-26T04:52:43;94915.34;;;10.02;62.69
9839;BME280;4958;48.150;11.506;2023-03-26T04:55:15;94917.91;;;10.02;62.63
9839;BME280;4958;48.150;11.506;2023-03-26T04:57:48;94920.09;;;10.05;62.82
9839;BME280;4958;48.150;11.506;2023-03-26T05:00:19;94914.16;;;10.04;62.75
9839;BME280;4958;48.150;11.506;2023-03-26T05:02:47;94907.84;;;10.07;62.72
9839;BME280;4958;48.150;11.506;2023-03-26T05:05:14;94910.06;;;10.10;62.58
9839;BME280;4958;48.150;11.506;2023-03-26T05:07:41;94905.34;;;10.14;62.33
9839;BME280;4958;48.150;11.506;2023-03-26T05:10:13;94900.22;;;10.20;62.42
9839;BME280;4958;48.150;11.506;2023-03-26T05:12:40;94892.28;;;10.15;62.26
9839;BME280;4958;48.150;11.506;2023-03-26T05:15:08;94901.41;;;10.18;62.33
9839;BME280;4958;48.150;11.506;2023-03-26T05:17:43;94890.72;;;10.21;62.08
9839;BME280;4958;48.150;11.506;2023-03-26T05:20:17;94886.81;;;10.25;62.09
9839;BME280;4958;48.150;11.506;2023-03-26T05:22:45;94882.63;;;10.24;62.38
9839;BME280;4958;48.150;11.506;2023-03-26T05:25:12;94879.28;;;10.23;62.40
9839;BME280;4958;48.150;11.506;2023-03-26T05:27:38;94887.81;;;10.30;62.12
9839;BME280;4958;48.150;11.506;2023-03-26T05:30:06;94883.88;;;10.34;62.03
9839;BME280;4958;48.150;11.506;2023-03-26T05:32:33;94879.34;;;10.36;61.80
9839;BME280;4958;48.150;11.506;2023-03-26T05:35:00;94887.66;;;10.38;61.75
9839;BME280;4958;48.150;11.506;2023-03-26T05:37:29;94878.38;;;10.44;61.74
9839;BME280;4958;48.150;11.506;2023-03-26T05:39:56;94880.16;;;10.44;61.44
9839;BME280;4958;48.150;11.506;2023-03-26T05:42:23;94871.81;;;10.42;61.48
9839;BME280;4958;48.150;11.506;2023-03-26T05:44:50;94876.19;;;10.41;61.33
9839;BME280;4958;48.150;11.506;2023-03-26T05:47:17;94863.13;;;10.36;61.43
9839;BME280;4958;48.150;11.506;2023-03-26T05:49:43;94863.50;;;10.33;61.53
9839;BME280;4958;48.150;11.506;2023-03-26T05:52:11;94859.56;;;10.37;61.03
9839;BME280;4958;48.150;11.506;2023-03-26T05:54:40;94857.38;;;10.41;61.65
9839;BME280;4958;48.150;11.506;2023-03-26T05:57:07;94846.50;;;10.38;61.10
9839;BME280;4958;48.150;11.506;2023-03-26T05:59:33;94841.94;;;10.41;61.17
9839;BME280;4958;48.150;11.506;2023-03-26T06:02:00;94838.56;;;10.40;61.37
9839;BME280;4958;48.150;11.506;2023-03-26T06:04:27;94832.84;;;10.38;61.33
9839;BME280;4958;48.150;11.506;2023-03-26T06:06:53;94826.09;;;10.37;61.53
9839;BME280;4958;48.150;11.506;2023-03-26T06:09:21;94826.09;;;10.37;61.64
9839;BME280;4958;48.150;11.506;2023-03-26T06:11:49;94822.75;;;10.43;61.56
9839;BME280;4958;48.150;11.506;2023-03-26T06:14:15;94828.91;;;10.49;61.21
9839;BME280;4958;48.150;11.506;2023-03-26T06:16:42;94824.56;;;10.56;60.92
9839;BME280;4958;48.150;11.506;2023-03-26T06:19:08;94823.78;;;10.55;60.71
9839;BME280;4958;48.150;11.506;2023-03-26T06:21:36;94822.59;;;10.58;61.14
9839;BME280;4958;48.150;11.506;2023-03-26T06:24:02;94823.97;;;10.60;60.89
9839;BME280;4958;48.150;11.506;2023-03-26T06:26:29;94825.16;;;10.64;61.01
9839;BME280;4958;48.150;11.506;2023-03-26T06:28:57;94821.41;;;10.67;60.58
9839;BME280;4958;48.150;11.506;2023-03-26T06:31:23;94818.25;;;10.65;60.57
9839;BME280;4958;48.150;11.506;2023-03-26T06:33:50;94815.06;;;10.63;61.08
9839;BME280;4958;48.150;11.506;2023-03-26T06:36:17;94816.84;;;10.62;60.70
9839;BME280;4958;48.150;11.506;2023-03-26T06:38:43;94806.97;;;10.66;60.50
9839;BME280;4958;48.150;11.506;2023-03-26T06:41:10;94803.38;;;10.67;59.95
9839;BME280;4958;48.150;11.506;2023-03-26T06:43:37;94808.16;;;10.77;59.66
9839;BME280;4958;48.150;11.506;2023-03-26T06:46:05;94801.44;;;10.82;59.95
9839;BME280;4958;48.150;11.506;2023-03-26T06:48:31;94813.91;;;10.85;59.48
9839;BME280;4958;48.150;11.506;2023-03-26T06:50:57;94796.09;;;10.90;59.33
9839;BME280;4958;48.150;11.506;2023-03-26T06:53:24;94800.66;;;10.95;59.34
9839;BME280;4958;48.150;11.506;2023-03-26T06:55:51;94800.25;;;10.91;58.18
9839;BME280;4958;48.150;11.506;2023-03-26T06:58:18;94802.84;;;10.91;57.87
9839;BME280;4958;48.150;11.506;2023-03-26T07:00:44;94803.81;;;10.90;57.61
9839;BME280;4958;48.150;11.506;2023-03-26T07:03:12;94796.28;;;10.89;57.08
9839;BME280;4958;48.150;11.506;2023-03-26T07:05:41;94797.03;;;10.63;57.02
9839;BME280;4958;48.150;11.506;2023-03-26T07:08:07;94788.94;;;10.72;57.71
9839;BME280;4958;48.150;11.506;2023-03-26T07:10:34;94788.53;;;10.56;57.39
9839;BME280;4958;48.150;11.506;2023-03-26T07:13:00;94789.34;;;10.56;58.40
9839;BME280;4958;48.150;11.506;2023-03-26T07:15:27;94787.34;;;10.65;58.91
9839;BME280;4958;48.150;11.506;2023-03-26T07:17:53;94786.56;;;10.71;59.79
9839;BME280;4958;48.150;11.506;2023-03-26T07:20:22;94785.78;;;10.57;61.82
9839;BME280;4958;48.150;11.506;2023-03-26T07:22:49;94779.22;;;10.48;63.36
9839;BME280;4958;48.150;11.506;2023-03-26T07:25:16;94776.63;;;10.48;63.95
9839;BME280;4958;48.150;11.506;2023-03-26T07:27:46;94761.00;;;10.50;65.70
9839;BME280;4958;48.150;11.506;2023-03-26T07:30:19;94751.69;;;10.62;65.25
9839;BME280;4958;48.150;11.506;2023-03-26T07:32:52;94745.97;;;10.53;66.34
9839;BME280;4958;48.150;11.506;2023-03-26T07:35:25;94738.81;;;10.49;66.92
9839;BME280;4958;48.150;11.506;2023-03-26T07:38:17;94727.53;;;10.50;67.47
9839;BME280;4958;48.150;11.506;2023-03-26T07:40:56;94725.00;;;10.56;68.24
9839;BME280;4958;48.150;11.506;2023-03-26T07:43:35;94712.91;;;10.63;67.70
9839;BME280;4958;48.150;11.506;2023-03-26T07:46:12;94708.34;;;10.65;69.15
9839;BME280;4958;48.150;11.506;2023-03-26T07:48:41;94705.97;;;10.64;68.36
9839;BME280;4958;48.150;11.506;2023-03-26T07:51:10;94698.44;;;10.69;68.95
9839;BME280;4958;48.150;11.506;2023-03-26T07:53:37;94696.28;;;10.72;68.50
9839;BME280;4958;48.150;11.506;2023-03-26T07:56:08;94689.16;;;10.75;69.53
9839;BME280;4958;48.150;11.506;2023-03-26T07:58:46;94678.66;;;10.76;70.65
9839;BME280;4958;48.150;11.506;2023-03-26T08:01:19;94668.34;;;10.76;70.20
9839;BME280;4958;48.150;11.506;2023-03-26T08:04:04;94664.97;;;10.76;71.12
9839;BME280;4958;48.150;11.506;2023-03-26T08:06:38;94657.63;;;10.79;69.15
9839;BME280;4958;48.150;11.506;2023-03-26T08:09:16;94649.53;;;10.62;69.97
9839;BME280;4958;48.150;11.506;2023-03-26T08:11:52;94644.59;;;10.54;69.92
9839;BME280;4958;48.150;11.506;2023-03-26T08:14:32;94640.03;;;10.50;70.70
9839;BME280;4958;48.150;11.506;2023-03-26T08:17:08;94639.25;;;10.56;71.46
9839;BME280;4958;48.150;11.506;2023-03-26T08:19:46;94643.63;;;10.55;72.42
9839;BME280;4958;48.150;11.506;2023-03-26T08:22:19;94641.25;;;10.54;69.89
9839;BME280;4958;48.150;11.506;2023-03-26T08:25:00;94640.63;;;10.58;69.85
9839;BME280;4958;48.150;11.506;2023-03-26T08:27:35;94627.34;;;10.61;69.80
9839;BME280;4958;48.150;11.506;2023-03-26T08:30:08;94629.53;;;10.64;69.90
9839;BME280;4958;48.150;11.506;2023-03-26T08:32:38;94619.63;;;10.75;70.11
9839;BME280;4958;48.150;11.506;2023-03-26T08:35:05;94623.19;;;10.73;69.88
9839;BME280;4958;48.150;11.506;2023-03-26T08:37:40;94618.81;;;10.81;69.75
9839;BME280;4958;48.150;11.506;2023-03-26T08:40:10;94616.03;;;10.82;69.12
9839;BME280;4958;48.150;11.506;2023-03-26T08:43:05;94622.78;;;10.83;69.12
9839;BME280;4958;48.150;11.506;2023-03-26T08:45:44;94631.28;;;10.90;68.67
9839;BME280;4958;48.150;11.506;2023-03-26T08:51:45;94632.88;;;10.85;67.34
9839;BME280;4958;48.150;11.506;2023-03-26T08:54:46;94637.63;;;10.88;67.74
9839;BME280;4958;48.150;11.506;2023-03-26T09:00:37;94625.16;;;10.85;68.12
9839;BME280;4958;48.150;11.506;2023-03-26T09:03:33;94617.47;;;10.71;67.87
9839;BME280;4958;48.150;11.506;2023-03-26T09:06:21;94621.41;;;10.74;68.16
9839;BME280;4958;48.150;11.506;2023-03-26T09:12:06;94606.16;;;10.66;67.88
9839;BME280;4958;48.150;11.506;2023-03-26T09:15:04;94606.59;;;10.56;66.60
9839;BME280;4958;48.150;11.506;2023-03-26T09:20:55;94602.81;;;10.46;68.77
9839;BME280;4958;48.150;11.506;2023-03-26T09:23:39;94592.94;;;10.49;68.94
9839;BME280;4958;48.150;11.506;2023-03-26T09:26:23;94587.19;;;10.47;69.68
9839;BME280;4958;48.150;11.506;2023-03-26T09:29:25;94575.72;;;10.50;71.04
9839;BME280;4958;48.150;11.506;2023-03-26T09:32:45;94575.50;;;10.58;71.59
9839;BME280;4958;48.150;11.506;2023-03-26T09:35:20;94570.56;;;10.56;70.56
9839;BME280;4958;48.150;11.506;2023-03-26T09:37:56;94588.38;;;10.58;71.14
9839;BME280;4958;48.150;11.506;2023-03-26T09:40:31;94590.34;;;10.56;71.52
9839;BME280;4958;48.150;11.506;2023-03-26T09:43:18;94594.50;;;10.50;72.81
9839;BME280;4958;48.150;11.506;2023-03-26T09:46:06;94594.91;;;10.47;72.86
9839;BME280;4958;48.150;11.506;2023-03-26T09:48:51;94600.25;;;10.46;72.84
9839;BME280;4958;48.150;11.506;2023-03-26T09:51:49;94584.22;;;10.44;73.21
9839;BME280;4958;48.150;11.506;2023-03-26T09:54:45;94564.22;;;10.46;75.51
9839;BME280;4958;48.150;11.506;2023-03-26T09:57:27;94582.03;;;10.47;76.11
9839;BME280;4958;48.150;11.506;2023-03-26T10:00:05;94570.97;;;10.47;76.51
9839;BME280;4958;48.150;11.506;2023-03-26T10:02:47;94565.63;;;10.48;76.58
9839;BME280;4958;48.150;11.506;2023-03-26T10:05:40;94563.25;;;10.53;76.58
9839;BME280;4958;48.150;11.506;2023-03-26T10:08:31;94539.09;;;10.48;78.94
9839;BME280;4958;48.150;11.506;2023-03-26T10:11:04;94546.25;;;10.39;78.56
9839;BME280;4958;48.150;11.506;2023-03-26T10:13:42;94542.28;;;10.30;79.09
9839;BME280;4958;48.150;11.506;2023-03-26T10:16:21;94532.59;;;10.25;78.38
9839;BME280;4958;48.150;11.506;2023-03-26T10:19:00;94547.44;;;10.23;78.45
9839;BME280;4958;48.150;11.506;2023-03-26T10:21:39;94558.50;;;10.30;78.08
9839;BME280;4958;48.150;11.506;2023-03-26T10:24:20;94563.63;;;10.44;78.50
9839;BME280;4958;48.150;11.506;2023-03-26T10:27:04;94553.75;;;10.41;78.08
9839;BME280;4958;48.150;11.506;2023-03-26T10:30:02;94534.78;;;10.35;77.91
9839;BME280;4958;48.150;11.506;2023-03-26T10:32:45;94554.34;;;10.43;77.82
9839;BME280;4958;48.150;11.506;2023-03-26T10:35:27;94567.78;;;10.45;77.92
9839;BME280;4958;48.150;11.506;2023-03-26T10:38:12;94550.56;;;10.45;77.70
9839;BME280;4958;48.150;11.506;2023-03-26T10:40:46;94572.53;;;10.41;77.74
9839;BME280;4958;48.150;11.506;2023-03-26T10:43:35;94571.19;;;10.38;78.91
9839;BME280;4958;48.150;11.506;2023-03-26T10:46:38;94580.47;;;10.39;79.07
9839;BME280;4958;48.150;11.506;2023-03-26T10:49:40;94576.91;;;10.34;80.22
9839;BME280;4958;48.150;11.506;2023-03-26T10:52:17;94560.47;;;10.15;82.20
9839;BME280;4958;48.150;11.506;2023-03-26T10:54:51;94566.06;;;10.19;82.74
9839;BME280;4958;48.150;11.506;2023-03-26T10:57:25;94568.00;;;10.17;84.69
9839;BME280;4958;48.150;11.506;2023-03-26T10:59:57;94564.44;;;10.11;84.19
9839;BME280;4958;48.150;11.506;2023-03-26T11:02:27;94550.78;;;10.04;84.42
9839;BME280;4958;48.150;11.506;2023-03-26T11:05:02;94547.03;;;10.07;81.56
9839;BME280;4958;48.150;11.506;2023-03-26T11:07:45;94541.66;;;10.01;81.41
9839;BME280;4958;48.150;11.506;2023-03-26T11:10:23;94532.19;;;10.09;81.17
9839;BME280;4958;48.150;11.506;2023-03-26T11:12:53;94527.06;;;10.22;81.26
9839;BME280;4958;48.150;11.506;2023-03-26T11:15:25;94528.63;;;10.23;80.93
9839;BME280;4958;48.150;11.506;2023-03-26T11:18:03;94527.06;;;10.22;81.03
9839;BME280;4958;48.150;11.506;2023-03-26T11:20:37;94526.84;;;10.23;81.15
9839;BME280;4958;48.150;11.506;2023-03-26T11:23:22;94522.09;;;10.14;83.25
9839;BME280;4958;48.150;11.506;2023-03-26T11:26:10;94530.59;;;10.21;83.38
9839;BME280;4958;48.150;11.506;2023-03-26T11:29:08;94527.84;;;10.16;80.74
9839;BME280;4958;48.150;11.506;2023-03-26T11:31:47;94522.88;;;10.08;81.26
9839;BME280;4958;48.150;11.506;2023-03-26T11:34:20;94523.31;;;9.98;83.03
9839;BME280;4958;48.150;11.506;2023-03-26T11:36:50;94520.72;;;9.98;83.30
9839;BME280;4958;48.150;11.506;2023-03-26T11:39:22;94520.53;;;9.99;84.25
9839;BME280;4958;48.150;11.506;2023-03-26T11:41:53;94531.78;;;9.85;84.61
9839;BME280;4958;48.150;11.506;2023-03-26T11:44:26;94520.69;;;9.65;84.98
9839;BME280;4958;48.150;11.506;2023-03-26T11:46:56;94538.72;;;9.58;85.52
9839;BME280;4958;48.150;11.506;2023-03-26T11:49:25;94529.19;;;9.52;86.93
9839;BME280;4958;48.150;11.506;2023-03-26T11:51:53;94512.41;;;9.63;87.22
9839;BME280;4958;48.150;11.506;2023-03-26T11:54:21;94513.03;;;9.78;86.72
9839;BME280;4958;48.150;11.506;2023-03-26T11:56:50;94513.81;;;9.92;86.53
9839;BME280;4958;48.150;11.506;2023-03-26T11:59:20;94514.41;;;10.00;87.00
9839;BME280;4958;48.150;11.506;2023-03-26T12:01:50;94517.16;;;9.92;86.53
9839;BME280;4958;48.150;11.506;2023-03-26T12:04:18;94490.66;;;9.98;86.28
9839;BME280;4958;48.150;11.506;2023-03-26T12:06:53;94486.28;;;10.05;84.53
9839;BME280;4958;48.150;11.506;2023-03-26T12:09:23;94478.97;;;10.22;83.48
9839;BME280;4958;48.150;11.506;2023-03-26T12:12:00;94506.66;;;10.20;82.70
9839;BME280;4958;48.150;11.506;2023-03-26T12:14:33;94500.53;;;10.34;82.55
9839;BME280;4958;48.150;11.506;2023-03-26T12:17:03;94499.50;;;10.49;80.93
9839;BME280;4958;48.150;11.506;2023-03-26T12:19:35;94490.59;;;10.51;80.54
9839;BME280;4958;48.150;11.506;2023-03-26T12:22:03;94478.84;;;10.68;79.92
9839;BME280;4958;48.150;11.506;2023-03-26T12:24:34;94478.97;;;10.87;80.38
9839;BME280;4958;48.150;11.506;2023-03-26T12:27:19;94483.06;;;11.01;79.20
9839;BME280;4958;48.150;11.506;2023-03-26T12:29:49;94484.84;;;11.00;77.19
9839;BME280;4958;48.150;11.506;2023-03-26T12:32:16;94486.03;;;10.98;77.72
9839;BME280;4958;48.150;11.506;2023-03-26T12:34:43;94473.59;;;10.95;77.67
9839;BME280;4958;48.150;11.506;2023-03-26T12:37:32;94456.50;;;11.00;78.22
9839;BME280;4958;48.150;11.506;2023-03-26T12:40:06;94467.66;;;10.94;78.71
9839;BME280;4958;48.150;11.506;2023-03-26T12:42:39;94470.59;;;10.98;79.28
9839;BME280;4958;48.150;11.506;2023-03-26T12:45:11;94477.16;;;10.94;78.88
9839;BME280;4958;48.150;11.506;2023-03-26T12:47:38;94479.38;;;10.84;79.72
9839;BME280;4958;48.150;11.506;2023-03-26T12:50:06;94477.03;;;10.76;79.39
9839;BME280;4958;48.150;11.506;2023-03-26T12:52:54;94474.63;;;10.81;78.47
9839;BME280;4958;48.150;11.506;2023-03-26T12:55:39;94477.97;;;10.88;77.88
9839;BME280;4958;48.150;11.506;2023-03-26T12:58:24;94471.44;;;10.92;77.01
9839;BME280;4958;48.150;11.506;2023-03-26T13:00:59;94459.75;;;10.83;77.31
9839;BME280;4958;48.150;11.506;2023-03-26T13:03:43;94465.66;;;10.96;77.38
9839;BME280;4958;48.150;11.506;2023-03-26T13:06:27;94459.97;;;10.81;76.65
9839;BME280;4958;48.150;11.506;2023-03-26T13:09:22;94452.44;;;10.80;76.61
9839;BME280;4958;48.150;11.506;2023-03-26T13:12:01;94459.16;;;10.87;77.19
9839;BME280;4958;48.150;11.506;2023-03-26T13:14:45;94448.28;;;10.85;77.31
9839;BME280;4958;48.150;11.506;2023-03-26T13:17:21;94444.50;;;10.88;76.64
9839;BME280;4958;48.150;11.506;2023-03-26T13:19:54;94448.84;;;10.87;77.15
9839;BME280;4958;48.150;11.506;2023-03-26T13:22:26;94447.88;;;10.88;77.31
9839;BME280;4958;48.150;11.506;2023-03-26T13:25:01;94452.94;;;11.01;76.94
9839;BME280;4958;48.150;11.506;2023-03-26T13:27:43;94453.13;;;11.00;76.27
9839;BME280;4958;48.150;11.506;2023-03-26T13:30:19;94450.56;;;11.00;76.17
9839;BME280;4958;48.150;11.506;2023-03-26T13:32:57;94446.88;;;10.89;76.40
9839;BME280;4958;48.150;11.506;2023-03-26T13:35:29;94445.09;;;10.90;76.52
9839;BME280;4958;48.150;11.506;2023-03-26T13:38:04;94448.25;;;10.92;76.38
9839;BME280;4958;48.150;11.506;2023-03-26T13:40:43;94455.59;;;10.88;76.20
9839;BME280;4958;48.150;11.506;2023-03-26T13:43:26;94447.25;;;10.93;76.69
9839;BME280;4958;48.150;11.506;2023-03-26T13:45:59;94434.41;;;10.86;75.85
9839;BME280;4958;48.150;11.506;2023-03-26T13:48:42;94433.63;;;10.86;75.77
9839;BME280;4958;48.150;11.506;2023-03-26T13:51:16;94425.50;;;10.82;75.55
9839;BME280;4958;48.150;11.506;2023-03-26T13:53:49;94423.13;;;10.81;75.72
9839;BME280;4958;48.150;11.506;2023-03-26T13:56:24;94416.59;;;10.78;75.83